createdAt,value
2023-03-01T00:01:48.230Z,10.20
2023-03-01T00:04:16.496Z,9.30
2023-03-01T00:06:47.124Z,9.20
2023-03-01T00:09:16.331Z,8.60
2023-03-01T00:11:46.056Z,7.50
2023-03-01T00:14:14.832Z,6.70
2023-03-01T00:16:44.889Z,7.40
2023-03-01T00:19:19.009Z,7.00
2023-03-01T00:21:47.549Z,5.90
2023-03-01T00:24:15.908Z,8.60
2023-03-01T00:26:44.322Z,11.00
2023-03-01T00:29:12.367Z,11.10
2023-03-01T00:31:40.316Z,12.70
2023-03-01T00:34:09.048Z,15.70
2023-03-01T00:36:39.256Z,15.60
2023-03-01T00:39:12.931Z,12.90
2023-03-01T00:41:41.537Z,12.00
2023-03-01T00:44:10.861Z,14.10
2023-03-01T00:46:39.371Z,13.90
2023-03-01T00:49:07.598Z,12.90
2023-03-01T00:51:35.651Z,13.60
2023-03-01T00:54:04.240Z,13.30
2023-03-01T00:56:32.737Z,14.20
2023-03-01T00:59:02.494Z,15.00
2023-03-01T01:01:32.299Z,16.10
2023-03-01T01:04:05.216Z,12.70
2023-03-01T01:06:36.394Z,14.20
2023-03-01T01:09:07.820Z,14.30
2023-03-01T01:11:37.577Z,14.10
2023-03-01T01:14:05.647Z,13.60
2023-03-01T01:16:34.542Z,13.30
2023-03-01T01:19:03.575Z,15.50
2023-03-01T01:21:32.172Z,13.90
2023-03-01T01:24:00.701Z,11.10
2023-03-01T01:26:32.486Z,12.30
2023-03-01T01:29:02.212Z,10.60
2023-03-01T01:31:31.410Z,9.80
2023-03-01T01:34:01.622Z,11.20
2023-03-01T01:36:30.264Z,11.30
2023-03-01T01:38:59.619Z,11.10
2023-03-01T01:41:30.095Z,14.60
2023-03-01T01:44:16.841Z,14.20
2023-03-01T01:46:53.828Z,11.60
2023-03-01T01:49:42.269Z,12.50
2023-03-01T01:52:21.919Z,12.50
2023-03-01T01:55:08.024Z,12.80
2023-03-01T01:57:50.409Z,12.50
2023-03-01T02:00:25.447Z,13.10
2023-03-01T02:03:00.060Z,14.00
2023-03-01T02:06:04.393Z,14.50
2023-03-01T02:08:36.767Z,14.30
2023-03-01T02:11:06.672Z,14.00
2023-03-01T02:13:35.774Z,13.40
2023-03-01T02:16:06.434Z,12.60
2023-03-01T02:18:34.673Z,11.60
2023-03-01T02:21:31.019Z,11.50
2023-03-01T02:24:08.207Z,11.90
2023-03-01T02:26:46.200Z,11.50
2023-03-01T02:29:14.271Z,11.00
2023-03-01T02:31:42.803Z,12.00
2023-03-01T02:34:23.831Z,10.60
2023-03-01T02:36:56.517Z,11.00
2023-03-01T02:39:34.514Z,11.50
2023-03-01T02:42:05.071Z,10.30
2023-03-01T02:44:33.423Z,12.50
2023-03-01T02:47:04.549Z,13.40
2023-03-01T02:49:36.010Z,15.10
2023-03-01T02:52:21.670Z,13.90
2023-03-01T02:55:02.767Z,15.30
2023-03-01T02:57:33.536Z,13.80
2023-03-01T03:00:08.289Z,14.50
2023-03-01T03:02:38.223Z,14.10
2023-03-01T03:05:15.736Z,13.50
2023-03-01T03:07:46.241Z,14.30
2023-03-01T03:10:21.402Z,14.80
2023-03-01T03:12:57.042Z,15.70
2023-03-01T03:15:26.804Z,14.50
2023-03-01T03:17:55.348Z,14.90
2023-03-01T03:20:27.478Z,14.70
2023-03-01T03:22:57.774Z,15.80
2023-03-01T03:25:28.110Z,15.20
2023-03-01T03:28:00.426Z,14.60
2023-03-01T03:32:59.882Z,15.90
2023-03-01T03:35:34.472Z,13.90
2023-03-01T03:38:07.541Z,14.50
2023-03-01T03:40:35.724Z,15.40
2023-03-01T03:43:10.245Z,16.50
2023-03-01T03:45:38.949Z,16.70
2023-03-01T03:48:09.153Z,16.20
2023-03-01T03:50:39.297Z,16.60
2023-03-01T03:53:10.348Z,16.40
2023-03-01T03:55:40.379Z,14.50
2023-03-01T03:58:10.835Z,16.70
2023-03-01T04:00:41.945Z,16.80
2023-03-01T04:03:10.963Z,15.20
2023-03-01T04:05:40.690Z,15.00
2023-03-01T04:08:09.796Z,15.80
2023-03-01T04:10:44.735Z,14.70
2023-03-01T04:13:15.767Z,15.00
2023-03-01T04:15:44.161Z,12.60
2023-03-01T04:18:17.427Z,15.60
2023-03-01T04:20:46.209Z,16.40
2023-03-01T04:23:19.531Z,17.10
2023-03-01T04:25:55.049Z,18.30
2023-03-01T04:28:31.199Z,17.30
2023-03-01T04:31:07.388Z,15.60
2023-03-01T04:33:35.865Z,16.30
2023-03-01T04:36:06.422Z,16.60
2023-03-01T04:38:35.079Z,13.60
2023-03-01T04:41:04.584Z,15.30
2023-03-01T04:43:32.918Z,14.60
2023-03-01T04:46:05.255Z,14.80
2023-03-01T04:48:33.904Z,15.10
2023-03-01T04:51:02.198Z,14.80
2023-03-01T04:53:31.242Z,16.50
2023-03-01T04:56:00.264Z,16.20
2023-03-01T04:58:29.575Z,18.60
2023-03-01T05:00:57.955Z,19.80
2023-03-01T05:03:26.433Z,19.30
2023-03-01T05:05:54.805Z,18.80
2023-03-01T05:08:22.883Z,18.00
2023-03-01T05:10:53.087Z,17.60
2023-03-01T05:13:22.407Z,18.00
2023-03-01T05:16:00.039Z,16.80
2023-03-01T05:18:31.396Z,17.70
2023-03-01T05:21:12.321Z,19.00
2023-03-01T05:23:41.009Z,18.70
2023-03-01T05:26:25.911Z,18.70
2023-03-01T05:28:59.988Z,18.20
2023-03-01T05:31:29.236Z,17.30
2023-03-01T05:33:57.462Z,17.20
2023-03-01T05:36:25.554Z,17.00
2023-03-01T05:38:54.000Z,17.00
2023-03-01T05:41:22.061Z,16.70
2023-03-01T05:43:50.678Z,17.00
2023-03-01T05:46:18.832Z,14.50
2023-03-01T05:48:46.888Z,16.80
2023-03-01T05:51:14.858Z,17.50
2023-03-01T05:53:42.792Z,17.80
2023-03-01T05:56:10.904Z,16.90
2023-03-01T05:58:39.729Z,18.10
2023-03-01T06:01:13.436Z,19.20
2023-03-01T06:03:41.579Z,19.20
2023-03-01T06:06:09.635Z,19.50
2023-03-01T06:08:37.606Z,18.70
2023-03-01T06:11:06.394Z,19.50
2023-03-01T06:13:34.676Z,17.70
2023-03-01T06:16:06.990Z,16.70
2023-03-01T06:18:35.339Z,17.70
2023-03-01T06:21:03.792Z,17.40
2023-03-01T06:23:32.791Z,19.00
2023-03-01T06:26:01.582Z,19.80
2023-03-01T06:28:29.619Z,20.40
2023-03-01T06:30:57.763Z,20.80
2023-03-01T06:33:25.789Z,20.50
2023-03-01T06:35:57.714Z,22.60
2023-03-01T06:38:26.052Z,21.30
2023-03-01T06:40:55.431Z,18.40
2023-03-01T06:43:24.733Z,17.40
2023-03-01T06:45:52.712Z,18.20
2023-03-01T06:48:20.661Z,19.00
2023-03-01T06:50:48.678Z,18.00
2023-03-01T06:53:16.760Z,18.10
2023-03-01T06:55:44.981Z,20.90
2023-03-01T06:58:13.149Z,20.00
2023-03-01T07:00:42.022Z,21.10
2023-03-01T07:03:10.362Z,24.80
2023-03-01T07:05:39.001Z,22.10
2023-03-01T07:08:07.273Z,20.40
2023-03-01T07:10:35.346Z,23.40
2023-03-01T07:13:03.424Z,23.60
2023-03-01T07:15:31.345Z,23.30
2023-03-01T07:17:59.597Z,23.90
2023-03-01T07:20:27.739Z,23.30
2023-03-01T07:22:59.384Z,22.50
2023-03-01T07:25:27.713Z,25.20
2023-03-01T07:27:55.898Z,24.80
2023-03-01T07:30:27.146Z,25.50
2023-03-01T07:32:57.116Z,24.50
2023-03-01T07:35:28.070Z,24.70
2023-03-01T07:37:56.322Z,22.40
2023-03-01T07:40:24.378Z,21.90
2023-03-01T07:42:57.480Z,21.00
2023-03-01T07:45:26.792Z,21.00
2023-03-01T07:47:56.437Z,22.50
2023-03-01T07:50:24.967Z,22.30
2023-03-01T07:52:53.118Z,20.70
2023-03-01T07:55:21.292Z,22.30
2023-03-01T07:57:49.274Z,22.80
2023-03-01T08:00:17.955Z,24.30
2023-03-01T08:02:46.517Z,24.20
2023-03-01T08:05:14.720Z,24.00
2023-03-01T08:07:42.777Z,25.50
2023-03-01T08:10:11.881Z,23.20
2023-03-01T08:12:39.864Z,21.00
2023-03-01T08:15:08.847Z,22.00
2023-03-01T08:17:36.817Z,21.90
2023-03-01T08:20:07.927Z,20.10
2023-03-01T08:22:36.022Z,19.80
2023-03-01T08:25:04.487Z,16.40
2023-03-01T08:27:32.428Z,17.60
2023-03-01T08:30:00.321Z,17.20
2023-03-01T08:32:28.545Z,15.70
2023-03-01T08:34:56.770Z,16.30
2023-03-01T08:37:24.841Z,15.70
2023-03-01T08:39:52.830Z,22.10
2023-03-01T08:42:20.771Z,34.30
2023-03-01T08:44:48.912Z,17.70
2023-03-01T08:47:18.660Z,20.20
2023-03-01T08:49:46.624Z,19.20
2023-03-01T08:52:14.591Z,22.30
2023-03-01T08:54:42.662Z,21.30
2023-03-01T08:57:10.720Z,20.60
2023-03-01T08:59:38.804Z,22.10
2023-03-01T09:02:13.703Z,21.50
2023-03-01T09:04:42.326Z,21.70
2023-03-01T09:07:10.465Z,20.80
2023-03-01T09:09:38.971Z,20.80
2023-03-01T09:12:07.250Z,21.00
2023-03-01T09:14:35.522Z,18.60
2023-03-01T09:17:04.257Z,19.60
2023-03-01T09:19:32.382Z,16.60
2023-03-01T09:22:00.271Z,13.90
2023-03-01T09:24:28.221Z,14.70
2023-03-01T09:26:57.628Z,15.70
2023-03-01T09:29:27.029Z,15.20
2023-03-01T09:31:56.373Z,14.70
2023-03-01T09:34:25.443Z,16.40
2023-03-01T09:36:53.791Z,16.80
2023-03-01T09:39:21.970Z,16.80
2023-03-01T09:41:54.472Z,18.80
2023-03-01T09:44:51.693Z,19.20
2023-03-01T09:47:23.942Z,17.00
2023-03-01T09:50:19.688Z,17.00
2023-03-01T09:53:02.256Z,15.80
2023-03-01T09:55:41.633Z,14.90
2023-03-01T09:58:43.665Z,15.60
2023-03-01T10:04:07.580Z,13.90
2023-03-01T10:06:36.038Z,13.80
2023-03-01T10:09:18.176Z,14.20
2023-03-01T10:11:56.165Z,15.00
2023-03-01T10:15:13.645Z,14.20
2023-03-01T10:17:50.482Z,11.50
2023-03-01T10:20:23.111Z,11.40
2023-03-01T10:22:53.515Z,13.10
2023-03-01T10:26:01.802Z,10.60
2023-03-01T10:28:43.488Z,12.50
2023-03-01T10:31:18.060Z,11.20
2023-03-01T10:33:46.144Z,10.20
2023-03-01T10:36:14.263Z,8.10
2023-03-01T10:39:22.036Z,7.50
2023-03-01T10:42:29.544Z,6.80
2023-03-01T10:44:57.943Z,3.30
2023-03-01T10:47:28.923Z,2.40
2023-03-01T10:50:03.049Z,3.90
2023-03-01T10:52:41.643Z,3.70
2023-03-01T10:55:28.337Z,3.90
2023-03-01T10:58:23.251Z,4.00
2023-03-01T11:00:55.332Z,5.30
2023-03-01T11:03:38.607Z,4.80
2023-03-01T11:06:12.360Z,3.70
2023-03-01T11:08:43.865Z,3.50
2023-03-01T11:11:34.452Z,4.00
2023-03-01T11:14:26.328Z,4.00
2023-03-01T11:17:02.898Z,5.60
2023-03-01T11:19:31.184Z,5.70
2023-03-01T11:22:05.521Z,6.40
2023-03-01T11:24:45.178Z,7.60
2023-03-01T11:27:25.160Z,6.60
2023-03-01T11:30:14.812Z,6.60
2023-03-01T11:33:12.132Z,6.90
2023-03-01T11:36:05.903Z,6.40
2023-03-01T11:38:37.587Z,6.90
2023-03-01T11:41:33.418Z,7.90
2023-03-01T11:44:15.524Z,13.10
2023-03-01T11:47:06.797Z,7.70
2023-03-01T11:49:40.630Z,6.70
2023-03-01T11:52:37.783Z,7.20
2023-03-01T11:55:11.579Z,6.90
2023-03-01T11:58:13.453Z,7.20
2023-03-01T12:01:02.701Z,7.00
2023-03-01T12:03:47.766Z,6.90
2023-03-01T12:06:44.220Z,8.00
2023-03-01T12:09:18.251Z,6.50
2023-03-01T12:12:03.168Z,6.70
2023-03-01T12:14:37.408Z,6.80
2023-03-01T12:17:56.727Z,6.80
2023-03-01T12:20:38.572Z,6.60
2023-03-01T12:23:28.602Z,7.30
2023-03-01T12:26:04.698Z,3.20
2023-03-01T12:29:20.816Z,2.60
2023-03-01T12:32:13.358Z,3.00
2023-03-01T12:34:44.640Z,3.40
2023-03-01T12:37:18.411Z,3.50
2023-03-01T12:40:04.788Z,3.80
2023-03-01T12:43:00.939Z,3.70
2023-03-01T12:45:47.075Z,4.50
2023-03-01T12:48:36.013Z,3.10
2023-03-01T12:51:15.240Z,2.90
2023-03-01T12:53:48.187Z,3.20
2023-03-01T12:56:28.783Z,4.00
2023-03-01T12:59:02.690Z,4.00
2023-03-01T13:02:09.214Z,3.80
2023-03-01T13:04:39.909Z,3.70
2023-03-01T13:07:10.926Z,4.20
2023-03-01T13:09:44.645Z,4.10
2023-03-01T13:12:50.738Z,4.90
2023-03-01T13:15:25.112Z,4.00
2023-03-01T13:18:04.932Z,3.90
2023-03-01T13:20:46.347Z,3.90
2023-03-01T13:23:20.756Z,4.40
2023-03-01T13:25:58.551Z,4.60
2023-03-01T13:28:32.692Z,4.40
2023-03-01T13:31:02.455Z,3.90
2023-03-01T13:33:30.454Z,5.00
2023-03-01T13:36:00.269Z,4.60
2023-03-01T13:38:38.682Z,4.50
2023-03-01T13:41:07.260Z,4.60
2023-03-01T13:43:41.981Z,5.60
2023-03-01T13:46:13.062Z,4.00
2023-03-01T13:48:41.722Z,5.00
2023-03-01T13:51:13.114Z,4.40
2023-03-01T13:53:45.183Z,3.90
2023-03-01T13:59:02.699Z,5.40
2023-03-01T14:01:37.386Z,4.90
2023-03-01T14:04:32.498Z,5.40
2023-03-01T14:07:18.712Z,5.40
2023-03-01T14:09:52.304Z,4.70
2023-03-01T14:12:27.976Z,5.40
2023-03-01T14:15:02.562Z,5.80
2023-03-01T14:17:47.503Z,5.90
2023-03-01T14:20:20.482Z,5.30
2023-03-01T14:22:51.665Z,6.00
2023-03-01T14:25:28.022Z,6.00
2023-03-01T14:28:00.245Z,5.90
2023-03-01T14:33:05.067Z,6.40
2023-03-01T14:35:35.807Z,5.40
2023-03-01T14:38:04.558Z,5.80
2023-03-01T14:40:38.163Z,6.20
2023-03-01T14:43:18.811Z,5.90
2023-03-01T14:45:51.769Z,19.90
2023-03-01T14:48:20.490Z,10.50
2023-03-01T14:50:49.893Z,5.90
2023-03-01T14:53:23.089Z,6.30
2023-03-01T14:55:56.894Z,5.60
2023-03-01T14:58:27.126Z,6.20
2023-03-01T15:00:58.810Z,6.70
2023-03-01T15:03:38.242Z,6.00
2023-03-01T15:06:08.340Z,6.10
2023-03-01T15:08:38.232Z,6.10
2023-03-01T15:11:25.573Z,5.70
2023-03-01T15:13:55.344Z,5.40
2023-03-01T15:16:34.252Z,5.80
2023-03-01T15:19:06.623Z,6.30
2023-03-01T15:24:24.712Z,7.50
2023-03-01T15:27:03.044Z,8.40
2023-03-01T15:29:34.562Z,8.40
2023-03-01T15:32:06.572Z,10.10
2023-03-01T15:34:40.484Z,9.30
2023-03-01T15:37:45.887Z,9.30
2023-03-01T15:40:22.187Z,6.80
2023-03-01T15:42:50.334Z,7.30
2023-03-01T15:45:21.892Z,7.00
2023-03-01T15:47:59.036Z,7.00
2023-03-01T15:50:40.921Z,6.80
2023-03-01T15:53:15.296Z,7.40
2023-03-01T15:55:43.348Z,6.80
2023-03-01T15:58:15.801Z,6.00
2023-03-01T16:00:59.398Z,6.50
2023-03-01T16:03:29.496Z,7.00
2023-03-01T16:05:57.895Z,7.10
2023-03-01T16:08:26.020Z,9.70
2023-03-01T16:10:55.759Z,10.60
2023-03-01T16:13:24.262Z,12.30
2023-03-01T16:15:52.534Z,12.90
2023-03-01T16:18:20.612Z,10.30
2023-03-01T16:20:50.075Z,10.70
2023-03-01T16:23:18.004Z,9.70
2023-03-01T16:25:46.010Z,9.60
2023-03-01T16:28:15.260Z,9.70
2023-03-01T16:30:49.231Z,9.20
2023-03-01T16:33:28.606Z,10.70
2023-03-01T16:36:10.924Z,9.80
2023-03-01T16:38:39.678Z,8.70
2023-03-01T16:41:13.464Z,8.70
2023-03-01T16:43:42.250Z,9.20
2023-03-01T16:46:18.836Z,10.70
2023-03-01T16:48:48.008Z,10.10
2023-03-01T16:51:16.984Z,10.50
2023-03-01T16:53:47.090Z,12.80
2023-03-01T16:56:16.525Z,13.40
2023-03-01T16:58:44.681Z,10.00
2023-03-01T17:01:19.116Z,9.30
2023-03-01T17:03:49.788Z,7.90
2023-03-01T17:06:21.628Z,8.90
2023-03-01T17:08:49.768Z,11.30
2023-03-01T17:11:19.821Z,11.70
2023-03-01T17:13:48.752Z,13.10
2023-03-01T17:16:18.806Z,12.60
2023-03-01T17:18:47.480Z,10.10
2023-03-01T17:21:17.543Z,10.00
2023-03-01T17:23:46.496Z,9.30
2023-03-01T17:26:14.509Z,8.30
2023-03-01T17:28:44.060Z,8.50
2023-03-01T17:31:12.454Z,9.00
2023-03-01T17:33:40.509Z,11.00
2023-03-01T17:36:08.960Z,11.00
2023-03-01T17:38:37.586Z,11.10
2023-03-01T17:41:05.634Z,10.90
2023-03-01T17:43:35.306Z,9.90
2023-03-01T17:46:04.176Z,9.50
2023-03-01T17:48:32.206Z,8.80
2023-03-01T17:51:00.270Z,9.10
2023-03-01T17:53:28.865Z,9.90
2023-03-01T17:56:05.999Z,9.10
2023-03-01T17:58:34.418Z,8.20
2023-03-01T18:01:14.010Z,7.80
2023-03-01T18:03:46.596Z,8.50
2023-03-01T18:06:27.126Z,8.30
2023-03-01T18:08:55.645Z,9.30
2023-03-01T18:11:25.087Z,8.70
2023-03-01T18:13:54.732Z,8.00
2023-03-01T18:16:23.398Z,8.90
2023-03-01T18:18:56.569Z,9.20
2023-03-01T18:21:24.847Z,8.50
2023-03-01T18:23:53.432Z,7.90
2023-03-01T18:26:25.100Z,8.40
2023-03-01T18:28:53.926Z,8.30
2023-03-01T18:31:22.823Z,10.60
2023-03-01T18:33:55.221Z,10.80
2023-03-01T18:36:26.325Z,10.90
2023-03-01T18:38:58.072Z,22.70
2023-03-01T18:41:28.035Z,19.10
2023-03-01T18:43:57.672Z,20.10
2023-03-01T18:46:26.692Z,15.50
2023-03-01T18:48:55.551Z,18.30
2023-03-01T18:51:26.440Z,15.80
2023-03-01T18:53:55.371Z,12.50
2023-03-01T18:56:23.413Z,12.60
2023-03-01T18:58:51.599Z,14.40
2023-03-01T19:01:25.760Z,15.20
2023-03-01T19:03:56.463Z,14.00
2023-03-01T19:06:28.268Z,13.20
2023-03-01T19:08:56.499Z,15.30
2023-03-01T19:11:27.208Z,15.00
2023-03-01T19:13:55.276Z,14.20
2023-03-01T19:16:29.558Z,17.40
2023-03-01T19:19:02.492Z,16.50
2023-03-01T19:21:32.536Z,15.00
2023-03-01T19:24:02.675Z,15.90
2023-03-01T19:26:32.084Z,16.10
2023-03-01T19:29:01.014Z,14.70
2023-03-01T19:31:31.059Z,17.80
2023-03-01T19:34:10.593Z,30.60
2023-03-01T19:36:42.904Z,36.10
2023-03-01T19:39:13.972Z,15.30
2023-03-01T19:41:43.967Z,17.70
2023-03-01T19:44:12.691Z,20.90
2023-03-01T19:46:41.503Z,12.60
2023-03-01T19:49:10.246Z,14.90
2023-03-01T19:51:39.523Z,18.90
2023-03-01T19:54:09.900Z,16.70
2023-03-01T19:56:38.769Z,16.10
2023-03-01T19:59:07.706Z,22.30
2023-03-01T20:01:37.908Z,17.50
2023-03-01T20:04:06.771Z,14.70
2023-03-01T20:06:36.085Z,13.60
2023-03-01T20:09:18.996Z,21.00
2023-03-01T20:11:48.856Z,21.10
2023-03-01T20:14:17.473Z,21.30
2023-03-01T20:16:45.769Z,21.80
2023-03-01T20:19:14.026Z,19.30
2023-03-01T20:21:42.203Z,17.80
2023-03-01T20:24:10.290Z,15.60
2023-03-01T20:26:38.657Z,16.10
2023-03-01T20:29:08.167Z,17.10
2023-03-01T20:31:36.238Z,16.00
2023-03-01T20:34:04.708Z,15.90
2023-03-01T20:36:34.263Z,16.00
2023-03-01T20:39:02.691Z,15.20
2023-03-01T20:41:31.763Z,16.00
2023-03-01T20:44:00.498Z,15.90
2023-03-01T20:46:32.710Z,17.20
2023-03-01T20:51:29.813Z,15.80
2023-03-01T20:53:57.868Z,18.30
2023-03-01T20:56:27.293Z,18.50
2023-03-01T20:59:06.201Z,19.80
2023-03-01T21:01:34.471Z,20.30
2023-03-01T21:04:02.964Z,18.30
2023-03-01T21:06:32.073Z,20.20
2023-03-01T21:09:00.342Z,20.80
2023-03-01T21:11:28.500Z,20.30
2023-03-01T21:13:56.975Z,21.10
2023-03-01T21:16:25.925Z,20.30
2023-03-01T21:18:54.688Z,20.20
2023-03-01T21:21:24.168Z,20.90
2023-03-01T21:23:53.969Z,22.30
2023-03-01T21:26:25.427Z,24.20
2023-03-01T21:28:58.561Z,23.50
2023-03-01T21:31:29.103Z,23.00
2023-03-01T21:33:59.207Z,24.00
2023-03-01T21:36:29.433Z,24.80
2023-03-01T21:39:00.837Z,23.40
2023-03-01T21:41:32.136Z,23.30
2023-03-01T21:44:03.061Z,21.50
2023-03-01T21:46:36.881Z,18.70
2023-03-01T21:49:05.842Z,19.80
2023-03-01T21:51:35.422Z,19.40
2023-03-01T21:54:03.904Z,20.80
2023-03-01T21:56:35.248Z,21.90
2023-03-01T21:59:03.527Z,19.50
2023-03-01T22:01:32.379Z,20.80
2023-03-01T22:04:03.248Z,22.70
2023-03-01T22:06:41.015Z,25.20
2023-03-01T22:09:13.895Z,21.40
2023-03-01T22:11:46.604Z,21.90
2023-03-01T22:14:16.556Z,21.10
2023-03-01T22:16:46.381Z,21.10
2023-03-01T22:19:16.250Z,19.00
2023-03-01T22:21:49.186Z,20.70
2023-03-01T22:24:19.748Z,21.00
2023-03-01T22:26:48.959Z,18.60
2023-03-01T22:29:24.081Z,22.60
2023-03-01T22:31:52.802Z,16.40
2023-03-01T22:34:21.832Z,17.80
2023-03-01T22:36:50.358Z,16.20
2023-03-01T22:39:21.217Z,16.10
2023-03-01T22:41:50.357Z,20.00
2023-03-01T22:44:21.624Z,29.00
2023-03-01T22:46:50.318Z,23.30
2023-03-01T22:49:19.743Z,17.70
2023-03-01T22:51:48.616Z,19.00
2023-03-01T22:54:18.325Z,25.10
2023-03-01T22:56:46.849Z,13.20
2023-03-01T22:59:19.046Z,13.20
2023-03-01T23:01:48.142Z,13.70
2023-03-01T23:04:18.445Z,11.90
2023-03-01T23:06:54.382Z,12.90
2023-03-01T23:09:26.484Z,13.50
2023-03-01T23:11:55.862Z,13.70
2023-03-01T23:14:25.752Z,12.00
2023-03-01T23:16:54.372Z,12.80
2023-03-01T23:19:23.246Z,13.20
2023-03-01T23:21:51.462Z,14.00
2023-03-01T23:24:21.766Z,14.80
2023-03-01T23:26:56.417Z,13.90
2023-03-01T23:29:24.388Z,16.60
2023-03-01T23:31:55.739Z,18.40
2023-03-01T23:34:25.639Z,23.70
2023-03-01T23:36:55.025Z,23.10
2023-03-01T23:39:23.236Z,20.20
2023-03-01T23:41:51.616Z,17.90
2023-03-01T23:44:21.493Z,21.60
2023-03-01T23:46:50.720Z,21.70
2023-03-01T23:49:22.191Z,18.40
2023-03-01T23:51:50.217Z,16.00
2023-03-01T23:54:20.885Z,15.10
2023-03-01T23:56:48.921Z,17.60
2023-03-01T23:59:22.914Z,16.00
